sensor_id;sensor_type;location;lat;lon;timestamp;pressure;altitude;pressure_sealevel;temperature;humidity
8697;BME280;4385;48.848;8.924;2023-05-19T00:00:30;97898.31;;;18.92;100.00
8697;BME280;4385;48.848;8.924;2023-05-19T00:02:55;97899.19;;;18.90;100.00
8697;BME280;4385;48.848;8.924;2023-05-19T00:05:21;97891.53;;;18.90;100.00
8697;BME280;4385;48.848;8.924;2023-05-19T00:07:50;97894.94;;;18.89;100.00
8697;BME280;4385;48.848;8.924;2023-05-19T00:10:16;97885.66;;;18.86;100.00
8697;BME280;4385;48.848;8.924;2023-05-19T00:12:42;97889.91;;;18.86;100.00
8697;BME280;4385;48.848;8.924;2023-05-19T00:15:08;97891.63;;;18.84;100.00
8697;BME280;4385;48.848;8.924;2023-05-19T00:17:34;97883.16;;;18.81;100.00
8697;BME280;4385;48.848;8.924;2023-05-19T00:20:01;97894.19;;;18.82;100.00
8697;BME280;4385;48.848;8.924;2023-05-19T00:22:31;97890.00;;;18.79;100.00
8697;BME280;4385;48.848;8.924;2023-05-19T00:24:56;97886.63;;;18.77;100.00
8697;BME280;4385;48.848;8.924;2023-05-19T00:27:22;97890.06;;;18.76;100.00
8697;BME280;4385;48.848;8.924;2023-05-19T00:29:47;97884.94;;;18.76;100.00
8697;BME280;4385;48.848;8.924;2023-05-19T00:32:12;97887.53;;;18.75;100.00
8697;BME280;4385;48.848;8.924;2023-05-19T00:34:37;97882.44;;;18.73;100.00
8697;BME280;4385;48.848;8.924;2023-05-19T00:37:03;97884.16;;;18.73;100.00
8697;BME280;4385;48.848;8.924;2023-05-19T00:39:28;97884.19;;;18.71;100.00
8697;BME280;4385;48.848;8.924;2023-05-19T00:41:53;97884.19;;;18.71;100.00
8697;BME280;4385;48.848;8.924;2023-05-19T00:44:19;97879.94;;;18.70;100.00
8697;BME280;4385;48.848;8.924;2023-05-19T00:46:44;97877.41;;;18.70;100.00
8697;BME280;4385;48.848;8.924;2023-05-19T00:49:09;97873.16;;;18.69;100.00
8697;BME280;4385;48.848;8.924;2023-05-19T00:51:35;97870.63;;;18.69;100.00
8697;BME280;4385;48.848;8.924;2023-05-19T00:54:01;97868.91;;;18.68;100.00
8697;BME280;4385;48.848;8.924;2023-05-19T00:56:27;97869.78;;;18.67;100.00
8697;BME280;4385;48.848;8.924;2023-05-19T00:58:53;97875.78;;;18.66;100.00
8697;BME280;4385;48.848;8.924;2023-05-19T01:01:19;97868.97;;;18.65;100.00
8697;BME280;4385;48.848;8.924;2023-05-19T01:03:46;97869.00;;;18.63;100.00
8697;BME280;4385;48.848;8.924;2023-05-19T01:06:12;97872.41;;;18.62;100.00
8697;BME280;4385;48.848;8.924;2023-05-19T01:08:37;97871.56;;;18.62;100.00
8697;BME280;4385;48.848;8.924;2023-05-19T01:11:06;97869.91;;;18.61;100.00
8697;BME280;4385;48.848;8.924;2023-05-19T01:13:32;97868.22;;;18.60;100.00
8697;BME280;4385;48.848;8.924;2023-05-19T01:16:10;97871.66;;;18.57;100.00
8697;BME280;4385;48.848;8.924;2023-05-19T01:18:44;97868.28;;;18.56;100.00
8697;BME280;4385;48.848;8.924;2023-05-19T01:24:15;97872.53;;;18.56;100.00
8697;BME280;4385;48.848;8.924;2023-05-19T01:27:23;97885.31;;;18.54;100.00
8697;BME280;4385;48.848;8.924;2023-05-19T01:30:28;97881.09;;;18.53;100.00
8697;BME280;4385;48.848;8.924;2023-05-19T01:32:59;97875.97;;;18.53;100.00
8697;BME280;4385;48.848;8.924;2023-05-19T01:35:26;97883.66;;;18.52;100.00
8697;BME280;4385;48.848;8.924;2023-05-19T01:37:55;97876.84;;;18.51;100.00
8697;BME280;4385;48.848;8.924;2023-05-19T01:40:22;97873.47;;;18.50;100.00
8697;BME280;4385;48.848;8.924;2023-05-19T01:42:50;97871.78;;;18.49;100.00
8697;BME280;4385;48.848;8.924;2023-05-19T01:45:17;97872.66;;;18.48;100.00
8697;BME280;4385;48.848;8.924;2023-05-19T01:47:45;97868.41;;;18.47;100.00
8697;BME280;4385;48.848;8.924;2023-05-19T01:50:11;97866.72;;;18.46;100.00
8697;BME280;4385;48.848;8.924;2023-05-19T01:52:36;97873.56;;;18.46;100.00
8697;BME280;4385;48.848;8.924;2023-05-19T01:55:02;97874.41;;;18.44;100.00
8697;BME280;4385;48.848;8.924;2023-05-19T01:57:32;97876.13;;;18.44;100.00
8697;BME280;4385;48.848;8.924;2023-05-19T02:05:44;97877.84;;;18.42;100.00
8697;BME280;4385;48.848;8.924;2023-05-19T02:08:26;97871.91;;;18.40;100.00
8697;BME280;4385;48.848;8.924;2023-05-19T02:10:57;97875.34;;;18.39;100.00
8697;BME280;4385;48.848;8.924;2023-05-19T02:13:30;97874.50;;;18.38;100.00
8697;BME280;4385;48.848;8.924;2023-05-19T02:16:03;97876.22;;;18.38;100.00
8697;BME280;4385;48.848;8.924;2023-05-19T02:18:31;97879.63;;;18.37;100.00
8697;BME280;4385;48.848;8.924;2023-05-19T02:20:57;97882.16;;;18.37;100.00
8697;BME280;4385;48.848;8.924;2023-05-19T02:23:22;97880.50;;;18.36;100.00
8697;BME280;4385;48.848;8.924;2023-05-19T02:25:47;97883.06;;;18.36;100.00
8697;BME280;4385;48.848;8.924;2023-05-19T02:28:13;97879.66;;;18.35;100.00
8697;BME280;4385;48.848;8.924;2023-05-19T02:30:38;97878.81;;;18.35;100.00
8697;BME280;4385;48.848;8.924;2023-05-19T02:33:04;97886.50;;;18.33;100.00
8697;BME280;4385;48.848;8.924;2023-05-19T02:35:30;97883.09;;;18.32;100.00
8697;BME280;4385;48.848;8.924;2023-05-19T02:37:56;97883.97;;;18.31;100.00
8697;BME280;4385;48.848;8.924;2023-05-19T02:40:21;97879.72;;;18.30;100.00
8697;BME280;4385;48.848;8.924;2023-05-19T02:42:47;97875.50;;;18.29;100.00
8697;BME280;4385;48.848;8.924;2023-05-19T02:45:13;97873.81;;;18.28;100.00
8697;BME280;4385;48.848;8.924;2023-05-19T02:47:38;97867.00;;;18.27;100.00
8697;BME280;4385;48.848;8.924;2023-05-19T02:50:06;97867.84;;;18.28;100.00
8697;BME280;4385;48.848;8.924;2023-05-19T02:52:31;97870.44;;;18.26;100.00
8697;BME280;4385;48.848;8.924;2023-05-19T02:54:57;97872.09;;;18.27;100.00
8697;BME280;4385;48.848;8.924;2023-05-19T02:57:22;97867.00;;;18.27;100.00
8697;BME280;4385;48.848;8.924;2023-05-19T02:59:48;97864.47;;;18.27;100.00
8697;BME280;4385;48.848;8.924;2023-05-19T03:02:13;97854.28;;;18.26;100.00
8697;BME280;4385;48.848;8.924;2023-05-19T03:04:38;97864.50;;;18.24;100.00
8697;BME280;4385;48.848;8.924;2023-05-19T03:07:05;97861.09;;;18.25;100.00
8697;BME280;4385;48.848;8.924;2023-05-19T03:09:31;97861.94;;;18.24;100.00
8697;BME280;4385;48.848;8.924;2023-05-19T03:11:56;97863.69;;;18.24;100.00
8697;BME280;4385;48.848;8.924;2023-05-19T03:14:27;97862.81;;;18.25;100.00
8697;BME280;4385;48.848;8.924;2023-05-19T03:16:53;97862.81;;;18.23;100.00
8697;BME280;4385;48.848;8.924;2023-05-19T03:19:20;97858.59;;;18.22;100.00
8697;BME280;4385;48.848;8.924;2023-05-19T03:21:45;97857.75;;;18.22;100.00
8697;BME280;4385;48.848;8.924;2023-05-19T03:24:11;97858.59;;;18.22;100.00
8697;BME280;4385;48.848;8.924;2023-05-19T03:26:36;97856.91;;;18.21;100.00
8697;BME280;4385;48.848;8.924;2023-05-19T03:29:02;97851.78;;;18.21;100.00
8697;BME280;4385;48.848;8.924;2023-05-19T03:31:27;97854.34;;;18.21;100.00
8697;BME280;4385;48.848;8.924;2023-05-19T03:33:54;97847.56;;;18.20;100.00
8697;BME280;4385;48.848;8.924;2023-05-19T03:36:22;97856.09;;;18.19;100.00
8697;BME280;4385;48.848;8.924;2023-05-19T03:38:47;97851.84;;;18.18;100.00
8697;BME280;4385;48.848;8.924;2023-05-19T03:41:12;97852.72;;;18.17;100.00
8697;BME280;4385;48.848;8.924;2023-05-19T03:43:37;97854.41;;;18.16;100.00
8697;BME280;4385;48.848;8.924;2023-05-19T03:46:03;97855.28;;;18.17;100.00
8697;BME280;4385;48.848;8.924;2023-05-19T03:48:28;97857.81;;;18.17;100.00
8697;BME280;4385;48.848;8.924;2023-05-19T03:50:54;97861.25;;;18.16;100.00
8697;BME280;4385;48.848;8.924;2023-05-19T03:53:19;97865.47;;;18.17;100.00
8697;BME280;4385;48.848;8.924;2023-05-19T03:55:45;97860.38;;;18.17;100.00
8697;BME280;4385;48.848;8.924;2023-05-19T03:58:10;97869.72;;;18.16;100.00
8697;BME280;4385;48.848;8.924;2023-05-19T04:00:38;97862.09;;;18.15;100.00
8697;BME280;4385;48.848;8.924;2023-05-19T04:03:04;97868.91;;;18.14;100.00
8697;BME280;4385;48.848;8.924;2023-05-19T04:05:29;97868.06;;;18.14;100.00
8697;BME280;4385;48.848;8.924;2023-05-19T04:07:54;97874.03;;;18.13;100.00
8697;BME280;4385;48.848;8.924;2023-05-19T04:10:20;97874.03;;;18.13;100.00
8697;BME280;4385;48.848;8.924;2023-05-19T04:12:46;97875.72;;;18.11;100.00
8697;BME280;4385;48.848;8.924;2023-05-19T04:15:12;97868.09;;;18.09;100.00
8697;BME280;4385;48.848;8.924;2023-05-19T04:17:38;97877.44;;;18.08;100.00
8697;BME280;4385;48.848;8.924;2023-05-19T04:20:04;97873.19;;;18.09;100.00
8697;BME280;4385;48.848;8.924;2023-05-19T04:22:31;97875.78;;;18.07;100.00
8697;BME280;4385;48.848;8.924;2023-05-19T04:24:56;97875.78;;;18.07;100.00
8697;BME280;4385;48.848;8.924;2023-05-19T04:27:22;97885.97;;;18.07;100.00
8697;BME280;4385;48.848;8.924;2023-05-19T04:29:48;97876.66;;;18.06;100.00
8697;BME280;4385;48.848;8.924;2023-05-19T04:32:13;97878.34;;;18.06;100.00
8697;BME280;4385;48.848;8.924;2023-05-19T04:34:42;97882.59;;;18.05;100.00
8697;BME280;4385;48.848;8.924;2023-05-19T04:37:10;97882.59;;;18.05;100.00
8697;BME280;4385;48.848;8.924;2023-05-19T04:39:36;97881.75;;;18.06;100.00
8697;BME280;4385;48.848;8.924;2023-05-19T04:42:04;97874.13;;;18.05;100.00
8697;BME280;4385;48.848;8.924;2023-05-19T04:44:29;97882.59;;;18.05;100.00
8697;BME280;4385;48.848;8.924;2023-05-19T04:46:55;97883.44;;;18.06;100.00
8697;BME280;4385;48.848;8.924;2023-05-19T04:49:21;97878.38;;;18.04;100.00
8697;BME280;4385;48.848;8.924;2023-05-19T04:51:48;97876.69;;;18.05;100.00
8697;BME280;4385;48.848;8.924;2023-05-19T04:54:14;97877.53;;;18.02;100.00
8697;BME280;4385;48.848;8.924;2023-05-19T04:56:39;97878.41;;;18.01;100.00
8697;BME280;4385;48.848;8.924;2023-05-19T04:59:06;97880.97;;;18.01;100.00
8697;BME280;4385;48.848;8.924;2023-05-19T05:01:31;97886.09;;;18.00;100.00
8697;BME280;4385;48.848;8.924;2023-05-19T05:03:57;97887.78;;;17.99;100.00
8697;BME280;4385;48.848;8.924;2023-05-19T05:06:23;97887.78;;;17.99;100.00
8697;BME280;4385;48.848;8.924;2023-05-19T05:08:48;97887.81;;;17.98;100.00
8697;BME280;4385;48.848;8.924;2023-05-19T05:11:15;97888.66;;;17.98;100.00
8697;BME280;4385;48.848;8.924;2023-05-19T05:13:40;97886.13;;;17.97;100.00
8697;BME280;4385;48.848;8.924;2023-05-19T05:16:06;97886.97;;;17.97;100.00
8697;BME280;4385;48.848;8.924;2023-05-19T05:18:33;97885.28;;;17.96;100.00
8697;BME280;4385;48.848;8.924;2023-05-19T05:20:59;97877.63;;;17.96;100.00
8697;BME280;4385;48.848;8.924;2023-05-19T05:23:24;97877.59;;;17.98;100.00
8697;BME280;4385;48.848;8.924;2023-05-19T05:25:50;97884.44;;;17.97;100.00
8697;BME280;4385;48.848;8.924;2023-05-19T05:28:15;97890.34;;;17.98;100.00
8697;BME280;4385;48.848;8.924;2023-05-19T05:30:41;97885.25;;;17.98;100.00
8697;BME280;4385;48.848;8.924;2023-05-19T05:33:07;97887.81;;;17.96;100.00
8697;BME280;4385;48.848;8.924;2023-05-19T05:35:33;97880.19;;;17.96;100.00
8697;BME280;4385;48.848;8.924;2023-05-19T05:37:58;97879.34;;;17.95;100.00
8697;BME280;4385;48.848;8.924;2023-05-19T05:40:24;97881.06;;;17.95;100.00
8697;BME280;4385;48.848;8.924;2023-05-19T05:42:49;97880.19;;;17.94;100.00
8697;BME280;4385;48.848;8.924;2023-05-19T05:45:14;97884.47;;;17.94;100.00
8697;BME280;4385;48.848;8.924;2023-05-19T05:47:40;97876.81;;;17.94;100.00
8697;BME280;4385;48.848;8.924;2023-05-19T05:50:07;97881.06;;;17.95;100.00
8697;BME280;4385;48.848;8.924;2023-05-19T05:52:35;97880.19;;;17.94;100.00
8697;BME280;4385;48.848;8.924;2023-05-19T05:55:02;97884.47;;;17.94;100.00
8697;BME280;4385;48.848;8.924;2023-05-19T05:57:27;97886.16;;;17.95;100.00
8697;BME280;4385;48.848;8.924;2023-05-19T05:59:55;97887.84;;;17.94;100.00
8697;BME280;4385;48.848;8.924;2023-05-19T06:02:20;97886.16;;;17.93;100.00
8697;BME280;4385;48.848;8.924;2023-05-19T06:04:46;97886.16;;;17.95;100.00
8697;BME280;4385;48.848;8.924;2023-05-19T06:07:11;97880.19;;;17.94;100.00
8697;BME280;4385;48.848;8.924;2023-05-19T06:09:36;97881.06;;;17.95;100.00
8697;BME280;4385;48.848;8.924;2023-05-19T06:12:02;97881.06;;;17.95;100.00
8697;BME280;4385;48.848;8.924;2023-05-19T06:14:27;97887.81;;;17.96;100.00
8697;BME280;4385;48.848;8.924;2023-05-19T06:16:52;97882.72;;;17.96;100.00
8697;BME280;4385;48.848;8.924;2023-05-19T06:19:18;97884.44;;;17.97;100.00
8697;BME280;4385;48.848;8.924;2023-05-19T06:21:46;97881.03;;;17.97;100.00
8697;BME280;4385;48.848;8.924;2023-05-19T06:24:11;97884.44;;;17.97;100.00
8697;BME280;4385;48.848;8.924;2023-05-19T06:26:36;97882.69;;;17.99;100.00
8697;BME280;4385;48.848;8.924;2023-05-19T06:29:02;97885.22;;;17.99;100.00
8697;BME280;4385;48.848;8.924;2023-05-19T06:31:28;97877.59;;;17.99;100.00
8697;BME280;4385;48.848;8.924;2023-05-19T06:33:53;97883.53;;;18.00;100.00
8697;BME280;4385;48.848;8.924;2023-05-19T06:36:18;97883.53;;;18.00;100.00
8697;BME280;4385;48.848;8.924;2023-05-19T06:38:43;97884.38;;;18.00;100.00
8697;BME280;4385;48.848;8.924;2023-05-19T06:41:09;97878.41;;;18.01;100.00
8697;BME280;4385;48.848;8.924;2023-05-19T06:43:34;97880.13;;;18.01;100.00
8697;BME280;4385;48.848;8.924;2023-05-19T06:46:00;97877.56;;;18.01;100.00
8697;BME280;4385;48.848;8.924;2023-05-19T06:48:25;97871.63;;;18.00;100.00
8697;BME280;4385;48.848;8.924;2023-05-19T06:50:50;97875.00;;;18.01;100.00
8697;BME280;4385;48.848;8.924;2023-05-19T06:53:18;97879.28;;;18.00;100.00
8697;BME280;4385;48.848;8.924;2023-05-19T06:55:45;97875.91;;;17.98;100.00
8697;BME280;4385;48.848;8.924;2023-05-19T06:58:10;97874.19;;;18.00;100.00
8697;BME280;4385;48.848;8.924;2023-05-19T07:00:35;97880.13;;;17.99;100.00
8697;BME280;4385;48.848;8.924;2023-05-19T07:03:01;97881.00;;;18.00;100.00
8697;BME280;4385;48.848;8.924;2023-05-19T07:05:26;97877.56;;;18.01;100.00
8697;BME280;4385;48.848;8.924;2023-05-19T07:07:52;97875.88;;;18.00;100.00
8697;BME280;4385;48.848;8.924;2023-05-19T07:10:17;97873.31;;;18.01;100.00
8697;BME280;4385;48.848;8.924;2023-05-19T07:12:42;97871.63;;;18.02;100.00
8697;BME280;4385;48.848;8.924;2023-05-19T07:15:08;97875.00;;;18.02;100.00
8697;BME280;4385;48.848;8.924;2023-05-19T07:17:33;97873.28;;;18.04;100.00
8697;BME280;4385;48.848;8.924;2023-05-19T07:19:59;97871.56;;;18.05;100.00
8697;BME280;4385;48.848;8.924;2023-05-19T07:22:25;97868.16;;;18.06;100.00
8697;BME280;4385;48.848;8.924;2023-05-19T07:24:51;97870.69;;;18.07;100.00
8697;BME280;4385;48.848;8.924;2023-05-19T07:27:16;97871.53;;;18.11;100.00
8697;BME280;4385;48.848;8.924;2023-05-19T07:29:42;97867.19;;;18.15;100.00
8697;BME280;4385;48.848;8.924;2023-05-19T07:32:07;97867.09;;;18.21;100.00
8697;BME280;4385;48.848;8.924;2023-05-19T07:34:32;97865.34;;;18.26;100.00
8697;BME280;4385;48.848;8.924;2023-05-19T07:36:57;97862.69;;;18.32;100.00
8697;BME280;4385;48.848;8.924;2023-05-19T07:39:23;97863.47;;;18.38;100.00
8697;BME280;4385;48.848;8.924;2023-05-19T07:41:50;97861.66;;;18.43;100.00
8697;BME280;4385;48.848;8.924;2023-05-19T07:44:19;97857.34;;;18.48;100.00
8697;BME280;4385;48.848;8.924;2023-05-19T07:46:45;97857.25;;;18.53;100.00
8697;BME280;4385;48.848;8.924;2023-05-19T07:49:10;97856.28;;;18.60;100.00
8697;BME280;4385;48.848;8.924;2023-05-19T07:51:35;97857.91;;;18.66;100.00
8697;BME280;4385;48.848;8.924;2023-05-19T07:54:01;97858.66;;;18.71;100.00
8697;BME280;4385;48.848;8.924;2023-05-19T07:56:26;97853.47;;;18.76;100.00
8697;BME280;4385;48.848;8.924;2023-05-19T07:58:51;97859.38;;;18.79;100.00
8697;BME280;4385;48.848;8.924;2023-05-19T08:01:17;97862.69;;;18.85;100.00
8697;BME280;4385;48.848;8.924;2023-05-19T08:03:42;97849.00;;;18.89;100.00
8697;BME280;4385;48.848;8.924;2023-05-19T08:06:07;97854.03;;;18.92;100.00
8697;BME280;4385;48.848;8.924;2023-05-19T08:08:32;97848.88;;;18.95;100.00
8697;BME280;4385;48.848;8.924;2023-05-19T08:11:01;97844.56;;;18.99;100.00
8697;BME280;4385;48.848;8.924;2023-05-19T08:13:27;97850.50;;;18.99;100.00
8697;BME280;4385;48.848;8.924;2023-05-19T08:15:52;97846.16;;;19.04;100.00
8697;BME280;4385;48.848;8.924;2023-05-19T08:18:23;97837.59;;;19.05;100.00
8697;BME280;4385;48.848;8.924;2023-05-19T08:20:48;97833.31;;;19.07;100.00
8697;BME280;4385;48.848;8.924;2023-05-19T08:23:14;97835.88;;;19.09;100.00
8697;BME280;4385;48.848;8.924;2023-05-19T08:25:39;97842.66;;;19.10;100.00
8697;BME280;4385;48.848;8.924;2023-05-19T08:28:04;97829.84;;;19.12;100.00
8697;BME280;4385;48.848;8.924;2023-05-19T08:30:30;97831.53;;;19.14;100.00
8697;BME280;4385;48.848;8.924;2023-05-19T08:32:56;97840.00;;;19.15;100.00
8697;BME280;4385;48.848;8.924;2023-05-19T08:35:21;97834.03;;;19.17;100.00
8697;BME280;4385;48.848;8.924;2023-05-19T08:37:46;97829.75;;;19.18;100.00
8697;BME280;4385;48.848;8.924;2023-05-19T08:40:15;97836.56;;;19.19;100.00
8697;BME280;4385;48.848;8.924;2023-05-19T08:42:42;97830.53;;;19.22;100.00
8697;BME280;4385;48.848;8.924;2023-05-19T08:45:07;97831.41;;;19.21;100.00
8697;BME280;4385;48.848;8.924;2023-05-19T08:47:33;97831.41;;;19.21;100.00
8697;BME280;4385;48.848;8.924;2023-05-19T08:50:06;97828.88;;;19.19;100.00
8697;BME280;4385;48.848;8.924;2023-05-19T08:55:17;97826.34;;;19.19;100.00
8697;BME280;4385;48.848;8.924;2023-05-19T08:57:47;97826.34;;;19.19;100.00
8697;BME280;4385;48.848;8.924;2023-05-19T09:00:15;97826.34;;;19.19;100.00
8697;BME280;4385;48.848;8.924;2023-05-19T09:02:41;97823.81;;;19.17;100.00
8697;BME280;4385;48.848;8.924;2023-05-19T09:05:07;97823.81;;;19.17;100.00
8697;BME280;4385;48.848;8.924;2023-05-19T09:07:35;97815.28;;;19.17;100.00
8697;BME280;4385;48.848;8.924;2023-05-19T09:10:00;97828.94;;;19.16;100.00
8697;BME280;4385;48.848;8.924;2023-05-19T09:12:26;97817.91;;;19.14;100.00
8697;BME280;4385;48.848;8.924;2023-05-19T09:14:51;97823.88;;;19.14;100.00
8697;BME280;4385;48.848;8.924;2023-05-19T09:17:17;97817.94;;;19.12;100.00
8697;BME280;4385;48.848;8.924;2023-05-19T09:19:43;97814.53;;;19.12;100.00
8697;BME280;4385;48.848;8.924;2023-05-19T09:22:09;97817.13;;;19.10;100.00
8697;BME280;4385;48.848;8.924;2023-05-19T09:24:35;97816.28;;;19.10;100.00
8697;BME280;4385;48.848;8.924;2023-05-19T09:27:01;97829.91;;;19.09;100.00
8697;BME280;4385;48.848;8.924;2023-05-19T09:29:27;97824.81;;;19.07;100.00
8697;BME280;4385;48.848;8.924;2023-05-19T09:31:53;97822.28;;;19.05;100.00
8697;BME280;4385;48.848;8.924;2023-05-19T09:34:20;97825.75;;;19.03;100.00
8697;BME280;4385;48.848;8.924;2023-05-19T09:36:47;97816.38;;;19.03;100.00
8697;BME280;4385;48.848;8.924;2023-05-19T09:39:20;97819.81;;;19.01;100.00
8697;BME280;4385;48.848;8.924;2023-05-19T09:41:46;97818.97;;;19.02;100.00
8697;BME280;4385;48.848;8.924;2023-05-19T09:44:33;97817.25;;;19.01;100.00
8697;BME280;4385;48.848;8.924;2023-05-19T09:46:59;97818.13;;;19.01;100.00
8697;BME280;4385;48.848;8.924;2023-05-19T09:49:25;97818.09;;;19.03;100.00
8697;BME280;4385;48.848;8.924;2023-05-19T09:51:57;97818.06;;;19.04;100.00
8697;BME280;4385;48.848;8.924;2023-05-19T09:54:23;97820.63;;;19.03;100.00
8697;BME280;4385;48.848;8.924;2023-05-19T09:57:03;97820.59;;;19.04;100.00
8697;BME280;4385;48.848;8.924;2023-05-19T09:59:29;97818.06;;;19.04;100.00
8697;BME280;4385;48.848;8.924;2023-05-19T10:01:56;97812.94;;;19.04;100.00
8697;BME280;4385;48.848;8.924;2023-05-19T10:04:23;97812.94;;;19.04;100.00
8697;BME280;4385;48.848;8.924;2023-05-19T10:06:51;97810.41;;;19.04;100.00
8697;BME280;4385;48.848;8.924;2023-05-19T10:09:21;97814.66;;;19.04;100.00
8697;BME280;4385;48.848;8.924;2023-05-19T10:11:46;97811.28;;;19.03;100.00
8697;BME280;4385;48.848;8.924;2023-05-19T10:14:12;97813.00;;;19.01;100.00
8697;BME280;4385;48.848;8.924;2023-05-19T10:16:38;97807.91;;;19.01;100.00
8697;BME280;4385;48.848;8.924;2023-05-19T10:19:06;97813.84;;;19.02;100.00
8697;BME280;4385;48.848;8.924;2023-05-19T10:21:31;97811.34;;;19.00;100.00
8697;BME280;4385;48.848;8.924;2023-05-19T10:23:57;97809.63;;;18.99;100.00
8697;BME280;4385;48.848;8.924;2023-05-19T10:26:23;97802.84;;;18.98;100.00
8697;BME280;4385;48.848;8.924;2023-05-19T10:28:50;97807.97;;;18.98;100.00
8697;BME280;4385;48.848;8.924;2023-05-19T10:31:18;97805.44;;;18.97;100.00
8697;BME280;4385;48.848;8.924;2023-05-19T10:34:07;97802.03;;;18.96;100.00
8697;BME280;4385;48.848;8.924;2023-05-19T10:36:43;97804.59;;;18.96;100.00
8697;BME280;4385;48.848;8.924;2023-05-19T10:39:21;97803.75;;;18.96;100.00
8697;BME280;4385;48.848;8.924;2023-05-19T10:44:33;97798.63;;;18.97;100.00
8697;BME280;4385;48.848;8.924;2023-05-19T10:47:05;97798.63;;;18.97;100.00
8697;BME280;4385;48.848;8.924;2023-05-19T10:49:34;97806.22;;;19.00;100.00
8697;BME280;4385;48.848;8.924;2023-05-19T10:52:00;97796.03;;;18.99;100.00
8697;BME280;4385;48.848;8.924;2023-05-19T10:54:41;97792.63;;;18.98;100.00
8697;BME280;4385;48.848;8.924;2023-05-19T10:57:08;97801.16;;;18.99;100.00
8697;BME280;4385;48.848;8.924;2023-05-19T10:59:35;97799.41;;;18.99;100.00
8697;BME280;4385;48.848;8.924;2023-05-19T11:02:07;97806.25;;;18.99;100.00
8697;BME280;4385;48.848;8.924;2023-05-19T11:04:45;97805.38;;;19.00;100.00
8697;BME280;4385;48.848;8.924;2023-05-19T11:07:18;97794.31;;;18.99;100.00
8697;BME280;4385;48.848;8.924;2023-05-19T11:09:48;97798.63;;;18.97;100.00
8697;BME280;4385;48.848;8.924;2023-05-19T11:12:19;97802.84;;;18.98;100.00
8697;BME280;4385;48.848;8.924;2023-05-19T11:14:44;97802.84;;;18.98;100.00
8697;BME280;4385;48.848;8.924;2023-05-19T11:17:14;97802.84;;;18.98;100.00
8697;BME280;4385;48.848;8.924;2023-05-19T11:19:51;97803.69;;;18.99;100.00
8697;BME280;4385;48.848;8.924;2023-05-19T11:22:16;97809.63;;;18.99;100.00
8697;BME280;4385;48.848;8.924;2023-05-19T11:24:45;97796.88;;;18.99;100.00
8697;BME280;4385;48.848;8.924;2023-05-19T11:27:25;97796.88;;;18.99;100.00
8697;BME280;4385;48.848;8.924;2023-05-19T11:30:13;97799.41;;;18.99;100.00
8697;BME280;4385;48.848;8.924;2023-05-19T11:32:43;97799.41;;;18.99;100.00
8697;BME280;4385;48.848;8.924;2023-05-19T11:35:11;97790.94;;;18.99;100.00
8697;BME280;4385;48.848;8.924;2023-05-19T11:37:36;97791.75;;;18.99;100.00
8697;BME280;4385;48.848;8.924;2023-05-19T11:40:06;97796.84;;;19.01;100.00
8697;BME280;4385;48.848;8.924;2023-05-19T11:42:32;97795.13;;;19.01;100.00
8697;BME280;4385;48.848;8.924;2023-05-19T11:44:59;97792.50;;;19.04;100.00
8697;BME280;4385;48.848;8.924;2023-05-19T11:47:26;97787.41;;;19.04;100.00
8697;BME280;4385;48.848;8.924;2023-05-19T11:49:53;97789.06;;;19.05;100.00
8697;BME280;4385;48.848;8.924;2023-05-19T11:52:22;97789.06;;;19.05;100.00
8697;BME280;4385;48.848;8.924;2023-05-19T11:54:48;97780.56;;;19.06;100.00
8697;BME280;4385;48.848;8.924;2023-05-19T11:57:14;97780.56;;;19.06;100.00
8697;BME280;4385;48.848;8.924;2023-05-19T11:59:40;97778.88;;;19.05;100.00
8697;BME280;4385;48.848;8.924;2023-05-19T12:02:20;97778.88;;;19.05;100.00
8697;BME280;4385;48.848;8.924;2023-05-19T12:04:46;97780.56;;;19.06;100.00
8697;BME280;4385;48.848;8.924;2023-05-19T12:07:14;97778.00;;;19.06;100.00
8697;BME280;4385;48.848;8.924;2023-05-19T12:09:42;97785.69;;;19.06;100.00
8697;BME280;4385;48.848;8.924;2023-05-19T12:12:07;97785.69;;;19.06;100.00
8697;BME280;4385;48.848;8.924;2023-05-19T12:14:33;97788.22;;;19.06;100.00
8697;BME280;4385;48.848;8.924;2023-05-19T12:16:58;97779.72;;;19.06;100.00
8697;BME280;4385;48.848;8.924;2023-05-19T12:19:33;97789.94;;;19.06;100.00
8697;BME280;4385;48.848;8.924;2023-05-19T12:21:59;97786.50;;;19.07;100.00
8697;BME280;4385;48.848;8.924;2023-05-19T12:24:24;97783.94;;;19.09;100.00
8697;BME280;4385;48.848;8.924;2023-05-19T12:26:50;97780.53;;;19.10;100.00
8697;BME280;4385;48.848;8.924;2023-05-19T12:29:15;97793.31;;;19.10;100.00
8697;BME280;4385;48.848;8.924;2023-05-19T12:31:45;97789.91;;;19.09;100.00
8697;BME280;4385;48.848;8.924;2023-05-19T12:34:11;97792.47;;;19.09;100.00
8697;BME280;4385;48.848;8.924;2023-05-19T12:36:37;97793.31;;;19.08;100.00
8697;BME280;4385;48.848;8.924;2023-05-19T12:39:04;97794.16;;;19.09;100.00
8697;BME280;4385;48.848;8.924;2023-05-19T12:41:30;97794.16;;;19.09;100.00
8697;BME280;4385;48.848;8.924;2023-05-19T12:43:55;97791.59;;;19.09;100.00
8697;BME280;4385;48.848;8.924;2023-05-19T12:46:21;97794.13;;;19.10;100.00
8697;BME280;4385;48.848;8.924;2023-05-19T12:48:46;97789.06;;;19.09;100.00
8697;BME280;4385;48.848;8.924;2023-05-19T12:51:16;97795.84;;;19.10;100.00
8697;BME280;4385;48.848;8.924;2023-05-19T12:53:42;97787.34;;;19.07;100.00
8697;BME280;4385;48.848;8.924;2023-05-19T12:56:11;97794.16;;;19.09;100.00
8697;BME280;4385;48.848;8.924;2023-05-19T12:58:37;97789.06;;;19.09;100.00
8697;BME280;4385;48.848;8.924;2023-05-19T13:01:04;97797.56;;;19.09;100.00
8697;BME280;4385;48.848;8.924;2023-05-19T13:03:30;97793.31;;;19.10;100.00
8697;BME280;4385;48.848;8.924;2023-05-19T13:05:55;97789.91;;;19.09;100.00
8697;BME280;4385;48.848;8.924;2023-05-19T13:08:21;97795.84;;;19.10;100.00
8697;BME280;4385;48.848;8.924;2023-05-19T13:10:48;97800.97;;;19.10;100.00
8697;BME280;4385;48.848;8.924;2023-05-19T13:13:13;97796.69;;;19.10;100.00
8697;BME280;4385;48.848;8.924;2023-05-19T13:15:40;97794.97;;;19.11;100.00
8697;BME280;4385;48.848;8.924;2023-05-19T13:18:08;97791.56;;;19.10;100.00
8697;BME280;4385;48.848;8.924;2023-05-19T13:20:34;97787.31;;;19.11;100.00
8697;BME280;4385;48.848;8.924;2023-05-19T13:23:00;97785.66;;;19.10;100.00